sensor_id;sensor_type;location;lat;lon;timestamp;P1;durP1;ratioP1;P2;durP2;ratioP2
11121;SDS011;5615;49.304;10.576;2024-02-21T00:04:51;16.13;;;6.17;;
11121;SDS011;5615;49.304;10.576;2024-02-21T00:07:17;14.87;;;5.97;;
11121;SDS011;5615;49.304;10.576;2024-02-21T00:09:46;20.37;;;7.03;;
11121;SDS011;5615;49.304;10.576;2024-02-21T00:12:14;14.00;;;6.00;;
11121;SDS011;5615;49.304;10.576;2024-02-21T00:24:51;15.57;;;6.30;;
11121;SDS011;5615;49.304;10.576;2024-02-21T00:27:18;17.20;;;6.23;;
11121;SDS011;5615;49.304;10.576;2024-02-21T00:29:54;10.83;;;5.53;;
11121;SDS011;5615;49.304;10.576;2024-02-21T00:32:21;17.07;;;6.20;;
11121;SDS011;5615;49.304;10.576;2024-02-21T00:34:48;15.63;;;6.47;;
11121;SDS011;5615;49.304;10.576;2024-02-21T00:37:14;12.90;;;5.73;;
11121;SDS011;5615;49.304;10.576;2024-02-21T00:39:41;13.73;;;6.20;;
11121;SDS011;5615;49.304;10.576;2024-02-21T00:42:09;16.83;;;6.60;;
11121;SDS011;5615;49.304;10.576;2024-02-21T00:44:36;13.70;;;6.30;;
11121;SDS011;5615;49.304;10.576;2024-02-21T00:47:40;19.27;;;6.60;;
11121;SDS011;5615;49.304;10.576;2024-02-21T01:00:29;18.57;;;6.40;;
11121;SDS011;5615;49.304;10.576;2024-02-21T01:02:56;15.93;;;6.17;;
11121;SDS011;5615;49.304;10.576;2024-02-21T01:33:55;10.80;;;5.67;;
11121;SDS011;5615;49.304;10.576;2024-02-21T01:41:29;13.77;;;5.77;;
11121;SDS011;5615;49.304;10.576;2024-02-21T01:43:56;14.60;;;5.60;;
11121;SDS011;5615;49.304;10.576;2024-02-21T01:46:23;11.67;;;5.20;;
11121;SDS011;5615;49.304;10.576;2024-02-21T01:48:57;11.70;;;5.40;;
11121;SDS011;5615;49.304;10.576;2024-02-21T01:51:27;10.77;;;5.70;;
11121;SDS011;5615;49.304;10.576;2024-02-21T01:53:55;11.07;;;4.90;;
11121;SDS011;5615;49.304;10.576;2024-02-21T01:56:22;15.43;;;5.53;;
11121;SDS011;5615;49.304;10.576;2024-02-21T01:58:51;14.17;;;4.67;;
11121;SDS011;5615;49.304;10.576;2024-02-21T02:01:18;11.43;;;4.90;;
11121;SDS011;5615;49.304;10.576;2024-02-21T02:03:46;13.57;;;4.70;;
11121;SDS011;5615;49.304;10.576;2024-02-21T02:42:34;12.43;;;5.00;;
11121;SDS011;5615;49.304;10.576;2024-02-21T02:45:02;10.80;;;4.60;;
11121;SDS011;5615;49.304;10.576;2024-02-21T02:55:12;14.50;;;5.17;;
11121;SDS011;5615;49.304;10.576;2024-02-21T03:00:16;12.07;;;5.03;;
11121;SDS011;5615;49.304;10.576;2024-02-21T03:18:11;11.60;;;4.87;;
11121;SDS011;5615;49.304;10.576;2024-02-21T03:23:16;14.00;;;5.47;;
11121;SDS011;5615;49.304;10.576;2024-02-21T03:25:43;14.77;;;5.10;;
11121;SDS011;5615;49.304;10.576;2024-02-21T03:28:10;11.90;;;5.27;;
11121;SDS011;5615;49.304;10.576;2024-02-21T03:30:37;12.07;;;4.90;;
11121;SDS011;5615;49.304;10.576;2024-02-21T03:33:04;14.50;;;5.30;;
11121;SDS011;5615;49.304;10.576;2024-02-21T03:45:54;12.60;;;4.97;;
11121;SDS011;5615;49.304;10.576;2024-02-21T03:48:22;12.40;;;4.83;;
11121;SDS011;5615;49.304;10.576;2024-02-21T03:50:51;10.37;;;5.47;;
11121;SDS011;5615;49.304;10.576;2024-02-21T03:53:19;13.23;;;5.30;;
11121;SDS011;5615;49.304;10.576;2024-02-21T03:55:47;12.47;;;5.23;;
11121;SDS011;5615;49.304;10.576;2024-02-21T04:06:15;10.40;;;4.90;;
11121;SDS011;5615;49.304;10.576;2024-02-21T04:11:17;13.03;;;5.67;;
11121;SDS011;5615;49.304;10.576;2024-02-21T04:13:45;16.10;;;6.70;;
11121;SDS011;5615;49.304;10.576;2024-02-21T04:16:13;14.67;;;6.43;;
11121;SDS011;5615;49.304;10.576;2024-02-21T04:18:40;14.57;;;6.33;;
11121;SDS011;5615;49.304;10.576;2024-02-21T04:21:07;15.77;;;6.37;;
11121;SDS011;5615;49.304;10.576;2024-02-21T04:23:35;13.00;;;6.93;;
11121;SDS011;5615;49.304;10.576;2024-02-21T04:26:02;19.50;;;5.93;;
11121;SDS011;5615;49.304;10.576;2024-02-21T04:28:29;14.90;;;6.53;;
11121;SDS011;5615;49.304;10.576;2024-02-21T04:30:55;13.67;;;6.30;;
11121;SDS011;5615;49.304;10.576;2024-02-21T04:33:22;14.83;;;7.57;;
11121;SDS011;5615;49.304;10.576;2024-02-21T04:35:49;18.00;;;6.70;;
11121;SDS011;5615;49.304;10.576;2024-02-21T04:38:16;12.40;;;5.67;;
11121;SDS011;5615;49.304;10.576;2024-02-21T04:40:45;19.17;;;7.70;;
11121;SDS011;5615;49.304;10.576;2024-02-21T04:43:11;13.70;;;6.73;;
11121;SDS011;5615;49.304;10.576;2024-02-21T04:45:38;16.73;;;7.17;;
11121;SDS011;5615;49.304;10.576;2024-02-21T04:48:05;14.40;;;6.67;;
11121;SDS011;5615;49.304;10.576;2024-02-21T04:50:32;16.27;;;6.90;;
11121;SDS011;5615;49.304;10.576;2024-02-21T04:52:59;13.77;;;5.97;;
11121;SDS011;5615;49.304;10.576;2024-02-21T04:55:25;12.27;;;5.73;;
11121;SDS011;5615;49.304;10.576;2024-02-21T04:57:53;24.87;;;7.33;;
11121;SDS011;5615;49.304;10.576;2024-02-21T05:00:20;15.00;;;6.30;;
11121;SDS011;5615;49.304;10.576;2024-02-21T05:02:47;19.70;;;6.20;;
11121;SDS011;5615;49.304;10.576;2024-02-21T05:05:13;14.87;;;5.97;;
11121;SDS011;5615;49.304;10.576;2024-02-21T05:07:41;18.77;;;7.00;;
11121;SDS011;5615;49.304;10.576;2024-02-21T05:10:08;18.37;;;6.60;;
11121;SDS011;5615;49.304;10.576;2024-02-21T05:12:35;16.80;;;6.70;;
11121;SDS011;5615;49.304;10.576;2024-02-21T05:15:04;15.00;;;6.03;;
11121;SDS011;5615;49.304;10.576;2024-02-21T05:17:31;15.27;;;6.30;;
11121;SDS011;5615;49.304;10.576;2024-02-21T05:19:58;15.33;;;6.87;;
11121;SDS011;5615;49.304;10.576;2024-02-21T05:22:25;14.63;;;7.70;;
11121;SDS011;5615;49.304;10.576;2024-02-21T05:24:52;18.07;;;8.50;;
11121;SDS011;5615;49.304;10.576;2024-02-21T05:27:18;14.77;;;6.40;;
11121;SDS011;5615;49.304;10.576;2024-02-21T05:29:45;19.20;;;8.53;;
11121;SDS011;5615;49.304;10.576;2024-02-21T05:32:14;16.80;;;7.20;;
11121;SDS011;5615;49.304;10.576;2024-02-21T05:34:41;14.90;;;6.53;;
11121;SDS011;5615;49.304;10.576;2024-02-21T05:37:09;18.83;;;7.07;;
11121;SDS011;5615;49.304;10.576;2024-02-21T05:39:35;16.53;;;6.90;;
11121;SDS011;5615;49.304;10.576;2024-02-21T05:42:02;19.23;;;6.83;;
11121;SDS011;5615;49.304;10.576;2024-02-21T05:44:29;14.87;;;7.50;;
11121;SDS011;5615;49.304;10.576;2024-02-21T05:46:56;20.97;;;7.27;;
11121;SDS011;5615;49.304;10.576;2024-02-21T05:49:24;12.03;;;6.43;;
11121;SDS011;5615;49.304;10.576;2024-02-21T05:51:50;19.57;;;7.40;;
11121;SDS011;5615;49.304;10.576;2024-02-21T05:54:17;14.07;;;7.50;;
11121;SDS011;5615;49.304;10.576;2024-02-21T05:56:44;16.47;;;7.50;;
11121;SDS011;5615;49.304;10.576;2024-02-21T05:59:12;20.00;;;8.63;;
11121;SDS011;5615;49.304;10.576;2024-02-21T06:01:39;22.43;;;9.60;;
11121;SDS011;5615;49.304;10.576;2024-02-21T06:04:05;15.27;;;7.97;;
11121;SDS011;5615;49.304;10.576;2024-02-21T06:06:33;20.90;;;7.40;;
11121;SDS011;5615;49.304;10.576;2024-02-21T06:09:00;18.50;;;6.53;;
11121;SDS011;5615;49.304;10.576;2024-02-21T06:11:27;17.87;;;7.27;;
11121;SDS011;5615;49.304;10.576;2024-02-21T06:13:55;15.07;;;7.80;;
11121;SDS011;5615;49.304;10.576;2024-02-21T06:16:21;17.93;;;8.27;;
11121;SDS011;5615;49.304;10.576;2024-02-21T06:18:48;19.13;;;9.77;;
11121;SDS011;5615;49.304;10.576;2024-02-21T06:21:14;27.53;;;14.70;;
11121;SDS011;5615;49.304;10.576;2024-02-21T06:23:43;16.77;;;7.23;;
11121;SDS011;5615;49.304;10.576;2024-02-21T06:26:09;19.37;;;8.37;;
11121;SDS011;5615;49.304;10.576;2024-02-21T06:28:36;19.93;;;6.73;;
11121;SDS011;5615;49.304;10.576;2024-02-21T06:31:03;16.57;;;7.03;;
11121;SDS011;5615;49.304;10.576;2024-02-21T06:33:29;17.67;;;7.10;;
11121;SDS011;5615;49.304;10.576;2024-02-21T06:35:56;16.47;;;6.37;;
11121;SDS011;5615;49.304;10.576;2024-02-21T06:38:23;14.93;;;7.00;;
11121;SDS011;5615;49.304;10.576;2024-02-21T06:40:51;21.53;;;7.10;;
11121;SDS011;5615;49.304;10.576;2024-02-21T06:43:19;15.57;;;6.60;;
11121;SDS011;5615;49.304;10.576;2024-02-21T06:45:47;11.23;;;6.37;;
11121;SDS011;5615;49.304;10.576;2024-02-21T06:48:15;17.87;;;7.30;;
11121;SDS011;5615;49.304;10.576;2024-02-21T06:50:43;13.53;;;6.37;;
11121;SDS011;5615;49.304;10.576;2024-02-21T06:54:00;17.80;;;6.40;;
11121;SDS011;5615;49.304;10.576;2024-02-21T06:56:34;21.37;;;6.73;;
11121;SDS011;5615;49.304;10.576;2024-02-21T06:59:02;11.90;;;5.57;;
11121;SDS011;5615;49.304;10.576;2024-02-21T07:01:30;13.30;;;5.60;;
11121;SDS011;5615;49.304;10.576;2024-02-21T07:03:56;11.67;;;5.90;;
11121;SDS011;5615;49.304;10.576;2024-02-21T07:06:23;12.97;;;6.00;;
11121;SDS011;5615;49.304;10.576;2024-02-21T07:08:50;14.77;;;6.07;;
11121;SDS011;5615;49.304;10.576;2024-02-21T07:11:16;11.17;;;5.83;;
11121;SDS011;5615;49.304;10.576;2024-02-21T07:13:44;15.33;;;5.40;;
11121;SDS011;5615;49.304;10.576;2024-02-21T07:19:03;10.63;;;5.70;;
11121;SDS011;5615;49.304;10.576;2024-02-21T07:21:31;14.10;;;5.60;;
11121;SDS011;5615;49.304;10.576;2024-02-21T07:23:58;11.90;;;4.90;;
11121;SDS011;5615;49.304;10.576;2024-02-21T07:26:24;13.17;;;5.50;;
11121;SDS011;5615;49.304;10.576;2024-02-21T07:28:52;12.40;;;5.43;;
11121;SDS011;5615;49.304;10.576;2024-02-21T07:31:19;12.83;;;6.07;;
11121;SDS011;5615;49.304;10.576;2024-02-21T07:33:46;10.87;;;4.93;;
11121;SDS011;5615;49.304;10.576;2024-02-21T07:36:14;10.87;;;5.77;;
11121;SDS011;5615;49.304;10.576;2024-02-21T07:38:42;11.27;;;5.27;;
11121;SDS011;5615;49.304;10.576;2024-02-21T07:41:08;8.90;;;5.27;;
11121;SDS011;5615;49.304;10.576;2024-02-21T07:43:35;14.00;;;5.97;;
11121;SDS011;5615;49.304;10.576;2024-02-21T07:46:03;12.13;;;5.10;;
11121;SDS011;5615;49.304;10.576;2024-02-21T07:48:30;11.73;;;5.93;;
11121;SDS011;5615;49.304;10.576;2024-02-21T07:50:56;13.37;;;5.30;;
11121;SDS011;5615;49.304;10.576;2024-02-21T07:53:23;9.67;;;5.57;;
11121;SDS011;5615;49.304;10.576;2024-02-21T07:55:50;13.50;;;6.30;;
11121;SDS011;5615;49.304;10.576;2024-02-21T07:58:16;12.17;;;5.07;;
11121;SDS011;5615;49.304;10.576;2024-02-21T08:00:43;13.70;;;5.43;;
11121;SDS011;5615;49.304;10.576;2024-02-21T08:03:11;11.20;;;5.07;;
11121;SDS011;5615;49.304;10.576;2024-02-21T08:05:39;10.00;;;4.83;;
11121;SDS011;5615;49.304;10.576;2024-02-21T08:08:06;12.20;;;4.93;;
11121;SDS011;5615;49.304;10.576;2024-02-21T08:10:33;10.53;;;4.70;;
11121;SDS011;5615;49.304;10.576;2024-02-21T08:12:59;10.57;;;4.90;;
11121;SDS011;5615;49.304;10.576;2024-02-21T08:15:26;9.17;;;4.07;;
11121;SDS011;5615;49.304;10.576;2024-02-21T08:17:54;11.80;;;4.27;;
11121;SDS011;5615;49.304;10.576;2024-02-21T08:20:25;10.33;;;5.50;;
11121;SDS011;5615;49.304;10.576;2024-02-21T08:22:52;9.83;;;4.43;;
11121;SDS011;5615;49.304;10.576;2024-02-21T08:25:19;9.80;;;4.37;;
11121;SDS011;5615;49.304;10.576;2024-02-21T08:27:45;8.80;;;4.43;;
11121;SDS011;5615;49.304;10.576;2024-02-21T08:30:12;8.07;;;3.70;;
11121;SDS011;5615;49.304;10.576;2024-02-21T08:32:39;9.30;;;3.80;;
11121;SDS011;5615;49.304;10.576;2024-02-21T08:35:07;9.63;;;4.07;;
11121;SDS011;5615;49.304;10.576;2024-02-21T08:37:36;8.10;;;3.73;;
11121;SDS011;5615;49.304;10.576;2024-02-21T08:40:02;9.40;;;4.10;;
11121;SDS011;5615;49.304;10.576;2024-02-21T08:42:33;7.03;;;3.73;;
11121;SDS011;5615;49.304;10.576;2024-02-21T08:45:00;6.23;;;3.43;;
11121;SDS011;5615;49.304;10.576;2024-02-21T08:47:27;11.00;;;3.83;;
11121;SDS011;5615;49.304;10.576;2024-02-21T08:49:54;6.47;;;3.30;;
11121;SDS011;5615;49.304;10.576;2024-02-21T08:52:20;9.30;;;3.50;;
11121;SDS011;5615;49.304;10.576;2024-02-21T08:54:48;7.90;;;3.70;;
11121;SDS011;5615;49.304;10.576;2024-02-21T08:57:18;10.70;;;3.40;;
11121;SDS011;5615;49.304;10.576;2024-02-21T08:59:45;7.80;;;3.37;;
11121;SDS011;5615;49.304;10.576;2024-02-21T09:02:12;9.07;;;3.63;;
11121;SDS011;5615;49.304;10.576;2024-02-21T09:04:41;7.63;;;3.27;;
11121;SDS011;5615;49.304;10.576;2024-02-21T09:07:08;11.23;;;3.20;;
11121;SDS011;5615;49.304;10.576;2024-02-21T09:09:35;8.97;;;3.90;;
11121;SDS011;5615;49.304;10.576;2024-02-21T09:12:05;9.13;;;3.33;;
11121;SDS011;5615;49.304;10.576;2024-02-21T09:14:32;7.43;;;3.47;;
11121;SDS011;5615;49.304;10.576;2024-02-21T09:16:59;6.10;;;2.97;;
11121;SDS011;5615;49.304;10.576;2024-02-21T09:19:26;7.70;;;3.53;;
11121;SDS011;5615;49.304;10.576;2024-02-21T09:21:52;11.17;;;3.30;;
11121;SDS011;5615;49.304;10.576;2024-02-21T09:24:19;11.93;;;3.80;;
11121;SDS011;5615;49.304;10.576;2024-02-21T09:26:46;9.70;;;3.77;;
11121;SDS011;5615;49.304;10.576;2024-02-21T09:29:14;6.13;;;3.17;;
11121;SDS011;5615;49.304;10.576;2024-02-21T09:31:41;7.37;;;3.13;;
11121;SDS011;5615;49.304;10.576;2024-02-21T09:34:08;6.83;;;3.40;;
11121;SDS011;5615;49.304;10.576;2024-02-21T09:36:36;11.30;;;4.07;;
11121;SDS011;5615;49.304;10.576;2024-02-21T09:39:03;6.93;;;3.20;;
11121;SDS011;5615;49.304;10.576;2024-02-21T09:41:30;10.40;;;3.33;;
11121;SDS011;5615;49.304;10.576;2024-02-21T09:43:56;6.80;;;3.20;;
11121;SDS011;5615;49.304;10.576;2024-02-21T09:46:28;8.60;;;3.37;;
11121;SDS011;5615;49.304;10.576;2024-02-21T09:49:08;7.43;;;3.03;;
11121;SDS011;5615;49.304;10.576;2024-02-21T09:51:44;7.97;;;3.10;;
11121;SDS011;5615;49.304;10.576;2024-02-21T09:54:13;6.70;;;3.37;;
11121;SDS011;5615;49.304;10.576;2024-02-21T09:56:39;7.40;;;3.10;;
11121;SDS011;5615;49.304;10.576;2024-02-21T09:59:06;4.57;;;2.67;;
11121;SDS011;5615;49.304;10.576;2024-02-21T10:01:35;7.33;;;3.20;;
11121;SDS011;5615;49.304;10.576;2024-02-21T10:04:02;8.57;;;3.10;;
11121;SDS011;5615;49.304;10.576;2024-02-21T10:06:29;7.37;;;3.20;;
11121;SDS011;5615;49.304;10.576;2024-02-21T10:08:56;8.10;;;3.17;;
11121;SDS011;5615;49.304;10.576;2024-02-21T10:11:23;7.87;;;3.10;;
11121;SDS011;5615;49.304;10.576;2024-02-21T10:13:50;9.73;;;3.10;;
11121;SDS011;5615;49.304;10.576;2024-02-21T10:16:17;6.63;;;2.60;;
11121;SDS011;5615;49.304;10.576;2024-02-21T10:18:45;5.17;;;2.97;;
11121;SDS011;5615;49.304;10.576;2024-02-21T10:21:12;10.43;;;3.20;;
11121;SDS011;5615;49.304;10.576;2024-02-21T10:23:45;13.13;;;3.20;;
11121;SDS011;5615;49.304;10.576;2024-02-21T10:26:13;7.10;;;2.80;;
11121;SDS011;5615;49.304;10.576;2024-02-21T10:28:40;7.53;;;3.17;;
11121;SDS011;5615;49.304;10.576;2024-02-21T10:31:10;5.97;;;2.97;;
11121;SDS011;5615;49.304;10.576;2024-02-21T10:33:37;7.37;;;3.17;;
11121;SDS011;5615;49.304;10.576;2024-02-21T10:36:09;8.13;;;3.20;;
11121;SDS011;5615;49.304;10.576;2024-02-21T10:38:36;9.53;;;2.83;;
11121;SDS011;5615;49.304;10.576;2024-02-21T10:41:04;5.87;;;2.60;;
11121;SDS011;5615;49.304;10.576;2024-02-21T10:43:33;6.07;;;2.80;;
11121;SDS011;5615;49.304;10.576;2024-02-21T10:46:05;7.10;;;2.83;;
11121;SDS011;5615;49.304;10.576;2024-02-21T10:48:33;7.30;;;2.80;;
11121;SDS011;5615;49.304;10.576;2024-02-21T10:51:11;6.90;;;2.83;;
11121;SDS011;5615;49.304;10.576;2024-02-21T10:53:44;6.13;;;2.60;;
11121;SDS011;5615;49.304;10.576;2024-02-21T10:56:21;5.57;;;2.70;;
11121;SDS011;5615;49.304;10.576;2024-02-21T10:58:52;6.67;;;2.77;;
11121;SDS011;5615;49.304;10.576;2024-02-21T11:01:20;6.40;;;2.60;;
11121;SDS011;5615;49.304;10.576;2024-02-21T11:03:48;5.57;;;2.30;;
11121;SDS011;5615;49.304;10.576;2024-02-21T11:06:18;7.17;;;2.83;;
11121;SDS011;5615;49.304;10.576;2024-02-21T11:08:46;6.57;;;2.40;;
11121;SDS011;5615;49.304;10.576;2024-02-21T11:11:14;6.77;;;2.83;;
11121;SDS011;5615;49.304;10.576;2024-02-21T11:13:43;7.17;;;2.60;;
11121;SDS011;5615;49.304;10.576;2024-02-21T11:16:11;4.95;;;2.60;;
11121;SDS011;5615;49.304;10.576;2024-02-21T11:18:47;5.80;;;2.40;;
11121;SDS011;5615;49.304;10.576;2024-02-21T11:21:13;4.50;;;2.42;;
11121;SDS011;5615;49.304;10.576;2024-02-21T11:23:42;7.35;;;2.88;;
11121;SDS011;5615;49.304;10.576;2024-02-21T11:26:08;4.45;;;2.65;;
11121;SDS011;5615;49.304;10.576;2024-02-21T11:28:36;6.47;;;2.30;;
11121;SDS011;5615;49.304;10.576;2024-02-21T11:31:10;4.88;;;2.40;;
11121;SDS011;5615;49.304;10.576;2024-02-21T11:33:39;6.00;;;2.55;;
11121;SDS011;5615;49.304;10.576;2024-02-21T11:36:07;3.67;;;2.47;;
11121;SDS011;5615;49.304;10.576;2024-02-21T11:38:34;6.63;;;2.35;;
11121;SDS011;5615;49.304;10.576;2024-02-21T11:41:02;5.47;;;2.58;;
11121;SDS011;5615;49.304;10.576;2024-02-21T11:43:34;3.83;;;2.60;;
11121;SDS011;5615;49.304;10.576;2024-02-21T11:46:01;5.50;;;2.58;;
11121;SDS011;5615;49.304;10.576;2024-02-21T11:48:29;4.18;;;2.45;;
11121;SDS011;5615;49.304;10.576;2024-02-21T11:50:57;4.72;;;2.40;;
11121;SDS011;5615;49.304;10.576;2024-02-21T11:53:25;4.70;;;2.33;;
11121;SDS011;5615;49.304;10.576;2024-02-21T11:55:56;6.28;;;2.42;;
11121;SDS011;5615;49.304;10.576;2024-02-21T11:58:24;5.75;;;2.83;;
11121;SDS011;5615;49.304;10.576;2024-02-21T12:00:51;6.05;;;2.30;;
11121;SDS011;5615;49.304;10.576;2024-02-21T12:03:18;5.32;;;2.35;;
11121;SDS011;5615;49.304;10.576;2024-02-21T12:05:45;5.10;;;2.30;;
11121;SDS011;5615;49.304;10.576;2024-02-21T12:08:12;6.45;;;2.60;;
11121;SDS011;5615;49.304;10.576;2024-02-21T12:10:39;5.55;;;2.22;;
11121;SDS011;5615;49.304;10.576;2024-02-21T12:13:09;5.82;;;2.50;;
11121;SDS011;5615;49.304;10.576;2024-02-21T12:15:39;5.40;;;2.63;;
11121;SDS011;5615;49.304;10.576;2024-02-21T12:18:06;5.22;;;2.25;;
11121;SDS011;5615;49.304;10.576;2024-02-21T12:20:33;5.47;;;2.50;;
11121;SDS011;5615;49.304;10.576;2024-02-21T12:23:01;5.75;;;2.67;;
11121;SDS011;5615;49.304;10.576;2024-02-21T12:25:29;6.93;;;2.80;;
11121;SDS011;5615;49.304;10.576;2024-02-21T12:27:55;4.53;;;2.42;;
11121;SDS011;5615;49.304;10.576;2024-02-21T12:30:23;6.05;;;2.65;;
11121;SDS011;5615;49.304;10.576;2024-02-21T12:32:51;5.30;;;2.08;;
11121;SDS011;5615;49.304;10.576;2024-02-21T12:35:18;3.88;;;2.13;;
11121;SDS011;5615;49.304;10.576;2024-02-21T12:37:44;5.90;;;2.50;;
11121;SDS011;5615;49.304;10.576;2024-02-21T12:40:11;5.20;;;2.05;;
11121;SDS011;5615;49.304;10.576;2024-02-21T12:42:39;3.97;;;2.10;;
11121;SDS011;5615;49.304;10.576;2024-02-21T12:45:06;3.55;;;1.95;;
11121;SDS011;5615;49.304;10.576;2024-02-21T12:47:33;3.38;;;1.98;;
11121;SDS011;5615;49.304;10.576;2024-02-21T12:50:01;6.40;;;2.35;;
11121;SDS011;5615;49.304;10.576;2024-02-21T12:52:31;4.32;;;2.08;;
11121;SDS011;5615;49.304;10.576;2024-02-21T12:54:58;6.25;;;2.70;;
11121;SDS011;5615;49.304;10.576;2024-02-21T12:57:25;4.30;;;1.95;;
11121;SDS011;5615;49.304;10.576;2024-02-21T12:59:51;4.63;;;2.30;;
11121;SDS011;5615;49.304;10.576;2024-02-21T13:02:18;4.15;;;2.10;;
11121;SDS011;5615;49.304;10.576;2024-02-21T13:04:45;4.20;;;2.38;;
11121;SDS011;5615;49.304;10.576;2024-02-21T13:07:14;3.67;;;2.23;;
11121;SDS011;5615;49.304;10.576;2024-02-21T13:09:40;3.53;;;1.97;;
11121;SDS011;5615;49.304;10.576;2024-02-21T13:12:07;5.90;;;2.93;;
11121;SDS011;5615;49.304;10.576;2024-02-21T13:14:34;6.77;;;3.20;;
11121;SDS011;5615;49.304;10.576;2024-02-21T13:17:03;9.43;;;5.00;;
11121;SDS011;5615;49.304;10.576;2024-02-21T13:19:30;6.97;;;3.80;;
11121;SDS011;5615;49.304;10.576;2024-02-21T13:21:57;5.83;;;2.93;;
11121;SDS011;5615;49.304;10.576;2024-02-21T13:24:25;3.93;;;2.40;;
11121;SDS011;5615;49.304;10.576;2024-02-21T13:26:52;5.87;;;2.60;;
11121;SDS011;5615;49.304;10.576;2024-02-21T13:29:18;7.50;;;2.80;;
11121;SDS011;5615;49.304;10.576;2024-02-21T13:31:45;4.65;;;2.60;;
11121;SDS011;5615;49.304;10.576;2024-02-21T13:34:12;3.85;;;2.28;;
11121;SDS011;5615;49.304;10.576;2024-02-21T13:36:38;6.13;;;2.88;;
11121;SDS011;5615;49.304;10.576;2024-02-21T13:39:05;4.15;;;2.42;;
11121;SDS011;5615;49.304;10.576;2024-02-21T13:41:34;2.65;;;1.90;;
11121;SDS011;5615;49.304;10.576;2024-02-21T13:44:01;2.58;;;1.83;;
11121;SDS011;5615;49.304;10.576;2024-02-21T13:46:28;5.65;;;2.35;;
11121;SDS011;5615;49.304;10.576;2024-02-21T13:49:02;3.83;;;2.30;;
11121;SDS011;5615;49.304;10.576;2024-02-21T13:51:31;4.28;;;2.10;;
11121;SDS011;5615;49.304;10.576;2024-02-21T13:53:58;4.57;;;2.08;;
11121;SDS011;5615;49.304;10.576;2024-02-21T13:56:25;5.60;;;2.40;;
11121;SDS011;5615;49.304;10.576;2024-02-21T13:58:53;5.28;;;1.88;;
11121;SDS011;5615;49.304;10.576;2024-02-21T14:01:19;3.85;;;2.33;;
11121;SDS011;5615;49.304;10.576;2024-02-21T14:03:46;4.00;;;1.98;;
11121;SDS011;5615;49.304;10.576;2024-02-21T14:06:13;5.38;;;2.10;;
11121;SDS011;5615;49.304;10.576;2024-02-21T14:08:39;3.83;;;2.00;;
11121;SDS011;5615;49.304;10.576;2024-02-21T14:11:06;3.85;;;1.80;;
11121;SDS011;5615;49.304;10.576;2024-02-21T14:13:33;3.70;;;2.00;;
11121;SDS011;5615;49.304;10.576;2024-02-21T14:16:01;6.70;;;2.35;;
11121;SDS011;5615;49.304;10.576;2024-02-21T14:18:27;2.92;;;1.75;;
11121;SDS011;5615;49.304;10.576;2024-02-21T14:20:54;2.65;;;1.90;;
11121;SDS011;5615;49.304;10.576;2024-02-21T14:23:21;4.07;;;2.42;;
11121;SDS011;5615;49.304;10.576;2024-02-21T14:25:47;4.20;;;2.00;;
11121;SDS011;5615;49.304;10.576;2024-02-21T14:28:15;5.50;;;2.10;;
11121;SDS011;5615;49.304;10.576;2024-02-21T14:30:43;3.28;;;1.85;;
11121;SDS011;5615;49.304;10.576;2024-02-21T14:33:11;4.20;;;1.75;;
11121;SDS011;5615;49.304;10.576;2024-02-21T14:35:37;1.95;;;1.75;;
11121;SDS011;5615;49.304;10.576;2024-02-21T14:38:04;3.38;;;1.70;;
11121;SDS011;5615;49.304;10.576;2024-02-21T14:40:31;3.47;;;1.90;;
11121;SDS011;5615;49.304;10.576;2024-02-21T14:42:58;4.33;;;1.83;;
11121;SDS011;5615;49.304;10.576;2024-02-21T14:45:25;5.80;;;1.80;;
11121;SDS011;5615;49.304;10.576;2024-02-21T14:47:52;3.03;;;1.80;;
11121;SDS011;5615;49.304;10.576;2024-02-21T14:50:21;4.07;;;1.60;;
11121;SDS011;5615;49.304;10.576;2024-02-21T14:52:48;3.00;;;1.70;;
11121;SDS011;5615;49.304;10.576;2024-02-21T14:55:15;3.87;;;1.73;;
11121;SDS011;5615;49.304;10.576;2024-02-21T14:57:42;2.20;;;1.70;;
11121;SDS011;5615;49.304;10.576;2024-02-21T15:00:09;3.53;;;1.70;;
11121;SDS011;5615;49.304;10.576;2024-02-21T15:02:36;5.40;;;2.50;;
11121;SDS011;5615;49.304;10.576;2024-02-21T15:05:04;6.97;;;3.00;;
11121;SDS011;5615;49.304;10.576;2024-02-21T15:07:32;4.97;;;2.43;;
11121;SDS011;5615;49.304;10.576;2024-02-21T15:09:59;3.67;;;1.60;;
11121;SDS011;5615;49.304;10.576;2024-02-21T15:12:26;3.70;;;2.10;;
11121;SDS011;5615;49.304;10.576;2024-02-21T15:14:52;3.43;;;1.77;;
11121;SDS011;5615;49.304;10.576;2024-02-21T15:17:19;2.50;;;1.63;;
11121;SDS011;5615;49.304;10.576;2024-02-21T15:19:46;2.93;;;1.90;;
11121;SDS011;5615;49.304;10.576;2024-02-21T15:22:13;2.63;;;1.77;;
11121;SDS011;5615;49.304;10.576;2024-02-21T15:24:41;4.57;;;1.77;;
11121;SDS011;5615;49.304;10.576;2024-02-21T15:27:08;3.07;;;2.00;;
11121;SDS011;5615;49.304;10.576;2024-02-21T15:29:35;2.43;;;1.80;;
11121;SDS011;5615;49.304;10.576;2024-02-21T15:32:02;5.03;;;2.50;;
11121;SDS011;5615;49.304;10.576;2024-02-21T15:34:29;4.97;;;2.10;;
11121;SDS011;5615;49.304;10.576;2024-02-21T15:36:56;6.70;;;2.30;;
11121;SDS011;5615;49.304;10.576;2024-02-21T15:39:22;6.97;;;2.33;;
11121;SDS011;5615;49.304;10.576;2024-02-21T15:41:53;6.80;;;1.80;;
11121;SDS011;5615;49.304;10.576;2024-02-21T15:44:20;5.30;;;2.37;;
11121;SDS011;5615;49.304;10.576;2024-02-21T15:46:47;5.23;;;2.03;;
11121;SDS011;5615;49.304;10.576;2024-02-21T15:49:13;5.53;;;2.37;;
11121;SDS011;5615;49.304;10.576;2024-02-21T15:51:41;4.97;;;2.30;;
11121;SDS011;5615;49.304;10.576;2024-02-21T15:54:07;2.33;;;1.70;;
11121;SDS011;5615;49.304;10.576;2024-02-21T15:56:34;3.83;;;2.27;;
11121;SDS011;5615;49.304;10.576;2024-02-21T15:59:02;2.97;;;2.37;;
11121;SDS011;5615;49.304;10.576;2024-02-21T16:01:29;3.67;;;2.10;;
11121;SDS011;5615;49.304;10.576;2024-02-21T16:03:58;4.40;;;2.60;;
11121;SDS011;5615;49.304;10.576;2024-02-21T16:06:25;3.57;;;2.23;;
11121;SDS011;5615;49.304;10.576;2024-02-21T16:08:52;5.33;;;2.03;;
11121;SDS011;5615;49.304;10.576;2024-02-21T16:11:18;5.87;;;2.37;;
11121;SDS011;5615;49.304;10.576;2024-02-21T16:13:45;5.20;;;2.40;;
11121;SDS011;5615;49.304;10.576;2024-02-21T16:16:14;3.47;;;2.33;;
11121;SDS011;5615;49.304;10.576;2024-02-21T16:18:41;5.13;;;2.20;;
11121;SDS011;5615;49.304;10.576;2024-02-21T16:21:08;5.17;;;2.47;;
11121;SDS011;5615;49.304;10.576;2024-02-21T16:23:34;4.47;;;2.47;;
11121;SDS011;5615;49.304;10.576;2024-02-21T16:26:01;4.03;;;2.60;;
11121;SDS011;5615;49.304;10.576;2024-02-21T16:28:27;6.13;;;2.70;;
11121;SDS011;5615;49.304;10.576;2024-02-21T16:30:54;6.30;;;2.97;;
11121;SDS011;5615;49.304;10.576;2024-02-21T16:33:24;4.63;;;3.07;;
11121;SDS011;5615;49.304;10.576;2024-02-21T16:35:50;6.30;;;3.30;;
11121;SDS011;5615;49.304;10.576;2024-02-21T16:38:17;8.63;;;3.97;;
11121;SDS011;5615;49.304;10.576;2024-02-21T16:40:44;6.97;;;3.77;;
11121;SDS011;5615;49.304;10.576;2024-02-21T16:43:11;7.67;;;3.63;;
11121;SDS011;5615;49.304;10.576;2024-02-21T16:45:38;5.57;;;3.77;;
11121;SDS011;5615;49.304;10.576;2024-02-21T16:48:05;9.30;;;3.63;;
11121;SDS011;5615;49.304;10.576;2024-02-21T16:50:33;7.00;;;3.70;;
11121;SDS011;5615;49.304;10.576;2024-02-21T16:53:00;8.20;;;4.17;;
11121;SDS011;5615;49.304;10.576;2024-02-21T16:55:28;5.27;;;3.90;;
11121;SDS011;5615;49.304;10.576;2024-02-21T16:57:58;7.87;;;4.03;;
11121;SDS011;5615;49.304;10.576;2024-02-21T17:00:25;5.20;;;3.30;;
11121;SDS011;5615;49.304;10.576;2024-02-21T17:02:52;4.73;;;3.00;;
11121;SDS011;5615;49.304;10.576;2024-02-21T17:05:18;5.33;;;3.50;;
11121;SDS011;5615;49.304;10.576;2024-02-21T17:07:50;6.43;;;3.50;;
11121;SDS011;5615;49.304;10.576;2024-02-21T17:10:17;9.43;;;3.47;;
11121;SDS011;5615;49.304;10.576;2024-02-21T17:12:43;6.70;;;3.53;;